Time,TemperatureF,DewpointF,PressureIn,WindDirection,WindDirectionDegrees,WindSpeedMPH,WindSpeedGustMPH,Humidity,HourlyPrecipIn,Conditions,Clouds,dailyrainin,SoftwareType,DateUTC
2013-06-07 00:01:00,60.8,60.3,29.47,West,270,0.0,1.0,98,0.00,,,0.01,meteohub,2013-06-07 04:01:00,
2013-06-07 00:03:00,60.8,60.3,29.46,West,270,0.0,1.0,98,0.00,,,0.01,meteohub,2013-06-07 04:03:00,
2013-06-07 00:05:00,60.8,60.3,29.47,West,270,0.0,1.0,98,0.00,,,0.01,meteohub,2013-06-07 04:05:00,
2013-06-07 00:11:00,60.8,60.3,29.46,West,270,0.0,1.0,98,0.00,,,0.00,meteohub,2013-06-07 04:11:00,
2013-06-07 00:17:00,60.8,60.3,29.46,East,90,0.0,1.0,98,0.00,,,0.00,meteohub,2013-06-07 04:17:00,
2013-06-07 00:22:00,60.8,60.3,29.46,East,90,0.0,0.0,98,0.00,,,0.00,meteohub,2013-06-07 04:22:00,
2013-06-07 00:23:00,60.8,60.3,29.46,South,180,0.0,0.0,98,0.00,,,0.00,meteohub,2013-06-07 04:23:00,
2013-06-07 00:29:00,60.8,60.3,29.45,South,180,0.0,0.0,98,0.00,,,0.00,meteohub,2013-06-07 04:29:00,
2013-06-07 00:36:00,60.6,60.3,29.45,South,180,0.0,0.0,99,0.00,,,0.00,meteohub,2013-06-07 04:36:00,
2013-06-07 00:42:00,60.6,60.3,29.45,South,180,0.0,0.0,99,0.00,,,0.00,meteohub,2013-06-07 04:42:00,
2013-06-07 00:43:00,60.6,60.3,29.45,South,180,2.0,0.0,99,0.00,,,0.00,meteohub,2013-06-07 04:43:00,
2013-06-07 00:59:00,60.4,60.1,29.45,North,0,1.0,2.0,99,0.00,,,0.00,meteohub,2013-06-07 04:59:00,
2013-06-07 01:05:00,60.4,60.1,29.45,SW,225,2.0,2.0,99,0.00,,,0.00,meteohub,2013-06-07 05:05:00,
2013-06-07 01:11:00,60.3,59.9,29.44,SW,225,0.0,2.0,99,0.00,,,0.00,meteohub,2013-06-07 05:11:00,
2013-06-07 01:17:00,60.3,59.9,29.44,SW,225,0.0,2.0,99,0.00,,,0.00,meteohub,2013-06-07 05:17:00,
2013-06-07 01:22:00,60.3,59.9,29.44,NW,315,0.0,2.0,99,0.00,,,0.00,meteohub,2013-06-07 05:22:00,
2013-06-07 01:28:00,60.3,59.9,29.44,South,180,0.0,0.0,99,0.00,,,0.00,meteohub,2013-06-07 05:28:00,
2013-06-07 01:36:00,60.3,59.9,29.44,South,180,0.0,1.0,99,0.00,,,0.00,meteohub,2013-06-07 05:36:00,
2013-06-07 01:42:00,60.3,59.9,29.44,South,180,0.0,1.0,99,0.00,,,0.00,meteohub,2013-06-07 05:42:00,
2013-06-07 01:49:00,60.3,59.9,29.44,NW,315,0.0,0.0,99,0.00,,,0.00,meteohub,2013-06-07 05:49:00,
2013-06-07 01:55:00,60.3,59.9,29.43,South,180,2.0,0.0,99,0.00,,,0.00,meteohub,2013-06-07 05:55:00,
2013-06-07 02:01:00,60.3,59.9,29.43,East,90,0.0,2.0,99,0.00,,,0.00,meteohub,2013-06-07 06:01:00,
2013-06-07 02:07:00,60.1,59.7,29.43,East,90,0.0,2.0,99,0.00,,,0.00,meteohub,2013-06-07 06:07:00,
2013-06-07 02:13:00,60.1,59.7,29.43,SW,225,0.0,2.0,99,0.00,,,0.00,meteohub,2013-06-07 06:13:00,
2013-06-07 02:20:00,59.9,59.5,29.43,NW,315,1.0,1.0,99,0.00,,,0.00,meteohub,2013-06-07 06:20:00,
2013-06-07 02:26:00,59.9,59.5,29.43,SE,135,0.0,2.0,99,0.00,,,0.00,meteohub,2013-06-07 06:26:00,
2013-06-07 02:32:00,59.9,59.5,29.43,SE,135,0.0,2.0,99,0.00,,,0.00,meteohub,2013-06-07 06:32:00,
2013-06-07 02:37:00,59.9,59.5,29.42,SE,135,0.0,1.0,99,0.00,,,0.00,meteohub,2013-06-07 06:37:00,
2013-06-07 02:43:00,59.9,59.5,29.42,SE,135,0.0,0.0,99,0.00,,,0.00,meteohub,2013-06-07 06:43:00,
2013-06-07 02:49:00,59.9,59.5,29.41,SE,135,0.0,0.0,99,0.00,,,0.00,meteohub,2013-06-07 06:49:00,
2013-06-07 02:55:00,59.9,59.5,29.41,SE,135,0.0,0.0,99,0.00,,,0.00,meteohub,2013-06-07 06:55:00,
2013-06-07 03:02:00,59.9,59.5,29.41,SE,135,0.0,0.0,99,0.00,,,0.00,meteohub,2013-06-07 07:02:00,
2013-06-07 03:08:00,59.9,59.5,29.40,SE,135,0.0,0.0,99,0.00,,,0.00,meteohub,2013-06-07 07:08:00,
2013-06-07 03:14:00,59.9,59.5,29.40,SE,135,0.0,0.0,99,0.00,,,0.00,meteohub,2013-06-07 07:14:00,
2013-06-07 03:20:00,59.9,59.5,29.40,SE,135,0.0,0.0,99,0.00,,,0.00,meteohub,2013-06-07 07:20:00,
2013-06-07 03:26:00,59.9,59.5,29.40,SE,135,0.0,0.0,99,0.00,,,0.00,meteohub,2013-06-07 07:26:00,
2013-06-07 03:32:00,59.7,59.4,29.40,SE,135,0.0,0.0,99,0.00,,,0.00,meteohub,2013-06-07 07:32:00,
2013-06-07 03:37:00,59.9,59.5,29.40,SE,135,0.0,0.0,99,0.00,,,0.00,meteohub,2013-06-07 07:37:00,
2013-06-07 03:43:00,59.9,59.5,29.40,SW,225,2.0,0.0,99,0.00,,,0.00,meteohub,2013-06-07 07:43:00,
2013-06-07 03:50:00,59.9,59.5,29.39,North,0,0.0,2.0,99,0.00,,,0.00,meteohub,2013-06-07 07:50:00,
2013-06-07 03:56:00,59.9,59.5,29.39,South,180,0.0,2.0,99,0.00,,,0.00,meteohub,2013-06-07 07:56:00,
2013-06-07 04:03:00,59.9,59.5,29.39,South,180,0.0,1.0,99,0.00,,,0.00,meteohub,2013-06-07 08:03:00,
2013-06-07 04:09:00,59.9,59.5,29.39,SW,225,0.0,1.0,99,0.00,,,0.00,meteohub,2013-06-07 08:09:00,
2013-06-07 04:15:00,59.9,59.5,29.39,SW,225,0.0,1.0,99,0.00,,,0.00,meteohub,2013-06-07 08:15:00,
2013-06-07 04:21:00,59.9,59.5,29.39,SW,225,0.0,1.0,99,0.00,,,0.00,meteohub,2013-06-07 08:21:00,
2013-06-07 04:28:00,60.1,59.7,29.39,South,180,1.0,0.0,99,0.00,,,0.00,meteohub,2013-06-07 08:28:00,
2013-06-07 04:34:00,59.9,59.5,29.39,South,180,0.0,2.0,99,0.00,,,0.00,meteohub,2013-06-07 08:34:00,
2013-06-07 04:40:00,59.9,59.5,29.38,South,180,0.0,2.0,99,0.00,,,0.00,meteohub,2013-06-07 08:40:00,
2013-06-07 04:46:00,59.9,59.5,29.38,SW,225,1.0,1.0,99,0.00,,,0.00,meteohub,2013-06-07 08:46:00,
2013-06-07 04:53:00,59.9,59.5,29.38,SW,225,0.0,2.0,99,0.00,,,0.00,meteohub,2013-06-07 08:53:00,
2013-06-07 04:59:00,59.9,59.5,29.38,NW,315,0.0,2.0,99,0.00,,,0.00,meteohub,2013-06-07 08:59:00,
2013-06-07 05:05:00,59.9,59.5,29.38,NW,315,0.0,1.0,99,0.00,,,0.00,meteohub,2013-06-07 09:05:00,
2013-06-07 05:11:00,59.9,59.5,29.38,West,270,0.0,0.0,99,0.00,,,0.00,meteohub,2013-06-07 09:11:00,
2013-06-07 05:17:00,59.9,59.5,29.39,West,270,0.0,0.0,99,0.00,,,0.00,meteohub,2013-06-07 09:17:00,
2013-06-07 05:22:00,59.9,59.5,29.39,NW,315,0.0,0.0,99,0.00,,,0.00,meteohub,2013-06-07 09:22:00,
2013-06-07 05:28:00,60.1,59.7,29.38,North,0,0.0,0.0,99,0.00,,,0.00,meteohub,2013-06-07 09:28:00,
2013-06-07 05:34:00,59.9,59.5,29.39,South,180,0.0,0.0,99,0.00,,,0.00,meteohub,2013-06-07 09:34:00,
2013-06-07 05:41:00,60.1,59.7,29.38,South,180,1.0,0.0,99,0.00,,,0.00,meteohub,2013-06-07 09:41:00,
2013-06-07 05:47:00,60.1,59.7,29.38,South,180,1.0,1.0,99,0.00,,,0.00,meteohub,2013-06-07 09:47:00,
2013-06-07 05:53:00,59.9,59.5,29.38,South,180,0.0,1.0,99,0.00,,,0.00,meteohub,2013-06-07 09:53:00,
2013-06-07 05:59:00,59.9,59.5,29.38,South,180,0.0,1.0,99,0.00,,,0.00,meteohub,2013-06-07 09:59:00,
2013-06-07 06:05:00,59.9,59.5,29.38,South,180,0.0,1.0,99,0.00,,,0.00,meteohub,2013-06-07 10:05:00,
2013-06-07 06:12:00,59.7,59.4,29.38,South,180,0.0,0.0,99,0.00,,,0.00,meteohub,2013-06-07 10:12:00,
2013-06-07 06:17:00,59.5,59.2,29.38,South,180,0.0,0.0,99,0.00,,,0.00,meteohub,2013-06-07 10:17:00,
2013-06-07 06:23:00,59.7,59.4,29.38,South,180,0.0,0.0,99,0.00,,,0.00,meteohub,2013-06-07 10:23:00,
2013-06-07 06:29:00,59.5,59.2,29.38,South,180,1.0,0.0,99,0.00,,,0.00,meteohub,2013-06-07 10:29:00,
2013-06-07 06:35:00,59.5,59.2,29.38,North,0,2.0,2.0,99,0.00,,,0.00,meteohub,2013-06-07 10:35:00,
2013-06-07 06:41:00,59.5,59.2,29.39,North,0,0.0,2.0,99,0.00,,,0.00,meteohub,2013-06-07 10:41:00,
2013-06-07 06:47:00,59.5,59.2,29.39,SE,135,0.0,2.0,99,0.00,,,0.00,meteohub,2013-06-07 10:47:00,
2013-06-07 06:52:00,59.5,59.2,29.39,SE,135,1.0,0.0,99,0.00,,,0.00,meteohub,2013-06-07 10:52:00,
2013-06-07 06:58:00,59.7,59.4,29.38,SE,135,1.0,1.0,99,0.00,,,0.00,meteohub,2013-06-07 10:58:00,
2013-06-07 07:04:00,59.9,59.5,29.39,SE,135,0.0,2.0,99,0.00,,,0.00,meteohub,2013-06-07 11:04:00,
2013-06-07 07:11:00,59.9,59.5,29.38,SE,135,0.0,2.0,99,0.00,,,0.00,meteohub,2013-06-07 11:11:00,
2013-06-07 07:17:00,60.1,59.7,29.38,North,0,1.0,1.0,99,0.00,,,0.00,meteohub,2013-06-07 11:17:00,
2013-06-07 07:23:00,60.4,60.1,29.38,South,180,0.0,2.0,99,0.00,,,0.00,meteohub,2013-06-07 11:23:00,
2013-06-07 07:29:00,60.8,60.3,29.39,SW,225,2.0,2.0,98,0.00,,,0.00,meteohub,2013-06-07 11:29:00,
2013-06-07 07:36:00,61.2,60.6,29.39,SW,225,2.0,3.0,98,0.00,,,0.00,meteohub,2013-06-07 11:36:00,
2013-06-07 07:42:00,61.5,61.0,29.39,NE,45,0.0,3.0,98,0.00,,,0.00,meteohub,2013-06-07 11:42:00,
2013-06-07 07:48:00,61.9,61.3,29.39,NE,45,1.0,2.0,98,0.00,,,0.00,meteohub,2013-06-07 11:48:00,
2013-06-07 07:54:00,62.1,61.5,29.39,SW,225,0.0,2.0,98,0.00,,,0.00,meteohub,2013-06-07 11:54:00,
2013-06-07 08:00:00,62.2,61.7,29.39,South,180,0.0,2.0,98,0.00,,,0.00,meteohub,2013-06-07 12:00:00,
2013-06-07 08:07:00,62.8,61.9,29.39,South,180,0.0,2.0,97,0.00,,,0.00,meteohub,2013-06-07 12:07:00,
2013-06-07 08:13:00,63.1,62.2,29.39,North,0,0.0,2.0,97,0.00,,,0.00,meteohub,2013-06-07 12:13:00,
2013-06-07 08:19:00,63.0,62.1,29.39,NE,45,0.0,2.0,97,0.00,,,0.00,meteohub,2013-06-07 12:19:00,
2013-06-07 08:25:00,63.5,62.6,29.39,NE,45,0.0,2.0,97,0.00,,,0.00,meteohub,2013-06-07 12:25:00,
2013-06-07 08:31:00,63.9,63.0,29.39,NE,45,0.0,2.0,97,0.00,,,0.00,meteohub,2013-06-07 12:31:00,
2013-06-07 08:38:00,64.0,63.1,29.40,NE,45,2.0,2.0,97,0.00,,,0.00,meteohub,2013-06-07 12:38:00,
2013-06-07 08:44:00,64.2,63.3,29.39,NE,45,1.0,2.0,97,0.00,,,0.00,meteohub,2013-06-07 12:44:00,
2013-06-07 08:50:00,64.9,63.9,29.40,South,180,2.0,2.0,96,0.00,,,0.00,meteohub,2013-06-07 12:50:00,
2013-06-07 08:57:00,65.1,63.7,29.40,NE,45,2.0,2.0,95,0.00,,,0.00,meteohub,2013-06-07 12:57:00,
2013-06-07 09:03:00,65.1,63.3,29.40,NE,45,1.0,2.0,94,0.00,,,0.00,meteohub,2013-06-07 13:03:00,
2013-06-07 09:09:00,65.8,63.7,29.40,NE,45,2.0,3.0,93,0.00,,,0.00,meteohub,2013-06-07 13:09:00,
2013-06-07 09:15:00,65.8,63.5,29.40,NE,45,2.0,2.0,92,0.00,,,0.00,meteohub,2013-06-07 13:15:00,
2013-06-07 09:22:00,66.0,63.7,29.40,North,0,0.0,2.0,92,0.00,,,0.00,meteohub,2013-06-07 13:22:00,
2013-06-07 09:28:00,66.6,63.1,29.40,North,0,2.0,2.0,89,0.00,,,0.00,meteohub,2013-06-07 13:28:00,
2013-06-07 09:34:00,67.3,63.7,29.40,North,0,0.0,2.0,88,0.00,,,0.00,meteohub,2013-06-07 13:34:00,
2013-06-07 09:40:00,67.6,63.7,29.41,East,90,1.0,2.0,87,0.00,,,0.00,meteohub,2013-06-07 13:40:00,
2013-06-07 09:46:00,67.5,62.8,29.41,NE,45,0.0,2.0,85,0.00,,,0.00,meteohub,2013-06-07 13:46:00,
2013-06-07 09:53:00,67.3,62.6,29.41,NE,45,0.0,2.0,85,0.00,,,0.00,meteohub,2013-06-07 13:53:00,
2013-06-07 09:59:00,67.8,62.4,29.40,SW,225,1.0,2.0,83,0.00,,,0.00,meteohub,2013-06-07 13:59:00,
2013-06-07 10:05:00,69.6,63.5,29.41,SE,135,1.0,6.0,81,0.00,,,0.00,meteohub,2013-06-07 14:05:00,
2013-06-07 10:11:00,71.1,63.5,29.41,North,0,2.0,6.0,77,0.00,,,0.00,meteohub,2013-06-07 14:11:00,
2013-06-07 10:17:00,71.4,63.1,29.41,NE,45,2.0,3.0,75,0.00,,,0.00,meteohub,2013-06-07 14:17:00,
2013-06-07 10:22:00,71.2,63.0,29.41,East,90,2.0,2.0,75,0.00,,,0.00,meteohub,2013-06-07 14:22:00,
2013-06-07 10:29:00,71.2,61.7,29.41,SE,135,2.0,3.0,72,0.00,,,0.00,meteohub,2013-06-07 14:29:00,
2013-06-07 10:35:00,70.5,61.5,29.41,South,180,4.0,5.0,73,0.00,,,0.00,meteohub,2013-06-07 14:35:00,
2013-06-07 10:41:00,70.2,60.6,29.41,South,180,4.0,7.0,72,0.00,,,0.00,meteohub,2013-06-07 14:41:00,
2013-06-07 10:47:00,72.3,61.5,29.41,SE,135,2.0,9.0,69,0.00,,,0.00,meteohub,2013-06-07 14:47:00,
2013-06-07 10:52:00,74.7,62.1,29.41,South,180,9.0,9.0,65,0.00,,,0.00,meteohub,2013-06-07 14:52:00,
2013-06-07 10:59:00,75.4,61.0,29.42,South,180,7.0,9.0,61,0.00,,,0.00,meteohub,2013-06-07 14:59:00,
2013-06-07 11:05:00,76.5,62.4,29.42,SW,225,6.0,11.0,62,0.00,,,0.00,meteohub,2013-06-07 15:05:00,
2013-06-07 11:11:00,75.4,61.0,29.42,South,180,2.0,11.0,61,0.00,,,0.00,meteohub,2013-06-07 15:11:00,
2013-06-07 11:17:00,75.9,61.5,29.42,West,270,4.0,8.0,61,0.00,,,0.00,meteohub,2013-06-07 15:17:00,
2013-06-07 11:22:00,73.8,59.9,29.42,SW,225,9.0,9.0,62,0.00,,,0.00,meteohub,2013-06-07 15:22:00,
2013-06-07 11:28:00,71.4,59.5,29.42,South,180,6.0,9.0,66,0.00,,,0.00,meteohub,2013-06-07 15:28:00,
2013-06-07 11:34:00,72.5,61.0,29.42,South,180,6.0,11.0,67,0.00,,,0.00,meteohub,2013-06-07 15:34:00,
2013-06-07 11:40:00,77.2,61.7,29.42,South,180,4.0,11.0,59,0.00,,,0.00,meteohub,2013-06-07 15:40:00,
2013-06-07 11:46:00,77.4,59.4,29.42,SW,225,6.0,7.0,54,0.00,,,0.00,meteohub,2013-06-07 15:46:00,
2013-06-07 11:53:00,80.1,60.3,29.42,East,90,4.0,8.0,51,0.00,,,0.00,meteohub,2013-06-07 15:53:00,
2013-06-07 11:59:00,77.9,58.8,29.42,SSW,203,3.0,8.0,52,0.00,,,0.00,meteohub,2013-06-07 15:59:00,
2013-06-07 12:05:00,78.8,59.2,29.42,South,180,4.0,9.0,51,0.00,,,0.00,meteohub,2013-06-07 16:05:00,
2013-06-07 12:11:00,82.0,60.4,29.43,NW,315,6.0,9.0,48,0.00,,,0.00,meteohub,2013-06-07 16:11:00,
2013-06-07 12:17:00,77.9,58.3,29.43,East,90,3.0,8.0,51,0.00,,,0.00,meteohub,2013-06-07 16:17:00,
2013-06-07 12:22:00,80.6,59.7,29.42,East,90,2.0,10.0,49,0.00,,,0.00,meteohub,2013-06-07 16:22:00,
2013-06-07 12:28:00,83.8,60.3,29.43,East,90,2.0,10.0,45,0.00,,,0.00,meteohub,2013-06-07 16:28:00,
2013-06-07 12:34:00,82.8,57.9,29.43,SW,225,5.0,8.0,43,0.00,,,0.00,meteohub,2013-06-07 16:34:00,
2013-06-07 12:41:00,80.6,59.2,29.43,South,180,5.0,8.0,48,0.00,,,0.00,meteohub,2013-06-07 16:41:00,
2013-06-07 12:47:00,81.7,57.6,29.43,SE,135,6.0,8.0,44,0.00,,,0.00,meteohub,2013-06-07 16:47:00,
2013-06-07 12:52:00,84.4,59.4,29.43,South,180,2.0,8.0,43,0.00,,,0.00,meteohub,2013-06-07 16:52:00,
2013-06-07 12:58:00,84.9,58.6,29.43,South,180,2.0,6.0,41,0.00,,,0.00,meteohub,2013-06-07 16:58:00,
2013-06-07 13:04:00,80.8,54.9,29.43,SW,225,1.0,9.0,41,0.00,,,0.00,meteohub,2013-06-07 17:04:00,
2013-06-07 13:10:00,80.8,56.1,29.43,SSE,158,2.0,10.0,43,0.00,,,0.00,meteohub,2013-06-07 17:10:00,
2013-06-07 13:17:00,80.8,56.1,29.43,SSE,158,2.0,10.0,43,0.00,,,0.00,meteohub,2013-06-07 17:17:00,
2013-06-07 13:23:00,83.1,57.6,29.42,North,0,2.0,2.0,42,0.00,,,0.00,meteohub,2013-06-07 17:23:00,
2013-06-07 13:29:00,81.7,55.0,29.42,SSW,203,13.0,13.0,40,0.00,,,0.00,meteohub,2013-06-07 17:29:00,
2013-06-07 13:35:00,82.9,57.6,29.42,North,0,2.0,13.0,42,0.00,,,0.00,meteohub,2013-06-07 17:35:00,
2013-06-07 13:41:00,84.4,56.7,29.42,West,270,2.0,13.0,39,0.00,,,0.00,meteohub,2013-06-07 17:41:00,
2013-06-07 13:47:00,88.3,59.5,29.42,South,180,4.0,11.0,38,0.00,,,0.00,meteohub,2013-06-07 17:47:00,
2013-06-07 13:53:00,88.3,54.7,29.42,South,180,11.0,11.0,32,0.00,,,0.00,meteohub,2013-06-07 17:53:00,
2013-06-07 13:59:00,85.3,54.5,29.42,South,180,5.0,11.0,35,0.00,,,0.00,meteohub,2013-06-07 17:59:00,
2013-06-07 14:04:00,85.3,57.6,29.42,East,90,4.0,11.0,39,0.00,,,0.00,meteohub,2013-06-07 18:04:00,
2013-06-07 14:10:00,84.0,57.0,29.42,SW,225,8.0,8.0,40,0.00,,,0.00,meteohub,2013-06-07 18:10:00,
2013-06-07 14:16:00,83.8,58.3,29.42,South,180,7.0,8.0,42,0.00,,,0.00,meteohub,2013-06-07 18:16:00,
2013-06-07 14:23:00,84.4,58.1,29.42,East,90,4.0,8.0,41,0.00,,,0.00,meteohub,2013-06-07 18:23:00,
2013-06-07 14:28:00,86.0,56.7,29.42,NW,315,3.0,8.0,37,0.00,,,0.00,meteohub,2013-06-07 18:28:00,
2013-06-07 14:34:00,84.4,55.2,29.42,SSE,158,5.0,8.0,37,0.00,,,0.00,meteohub,2013-06-07 18:34:00,
2013-06-07 14:40:00,81.1,53.8,29.42,South,180,8.0,9.0,39,0.00,,,0.00,meteohub,2013-06-07 18:40:00,
2013-06-07 14:47:00,78.1,55.0,29.42,SW,225,5.0,9.0,45,0.00,,,0.00,meteohub,2013-06-07 18:47:00,
2013-06-07 14:53:00,77.5,54.5,29.42,South,180,5.0,9.0,45,0.00,,,0.00,meteohub,2013-06-07 18:53:00,
2013-06-07 15:00:00,77.4,54.3,29.42,South,180,4.0,8.0,45,0.00,,,0.00,meteohub,2013-06-07 19:00:00,
2013-06-07 15:06:00,77.2,55.9,29.42,South,180,7.0,7.0,48,0.00,,,0.00,meteohub,2013-06-07 19:06:00,
2013-06-07 15:11:00,76.5,56.5,29.42,SW,225,1.0,7.0,50,0.00,,,0.00,meteohub,2013-06-07 19:11:00,
2013-06-07 15:17:00,75.4,57.0,29.42,North,0,9.0,9.0,53,0.00,,,0.00,meteohub,2013-06-07 19:17:00,
2013-06-07 15:23:00,71.4,57.7,29.43,SW,225,11.0,11.0,62,0.00,,,0.00,meteohub,2013-06-07 19:23:00,
2013-06-07 15:29:00,69.3,57.0,29.43,SE,135,2.0,10.0,65,0.00,,,0.00,meteohub,2013-06-07 19:29:00,
2013-06-07 15:41:00,65.5,58.5,29.44,South,180,5.0,6.0,78,0.01,,,0.01,meteohub,2013-06-07 19:41:00,
2013-06-07 15:47:00,63.9,57.9,29.44,East,90,2.0,7.0,81,0.06,,,0.06,meteohub,2013-06-07 19:47:00,
2013-06-07 15:53:00,63.1,58.6,29.44,East,90,0.0,7.0,85,0.09,,,0.09,meteohub,2013-06-07 19:53:00,
2013-06-07 15:59:00,63.7,60.1,29.43,East,90,2.0,7.0,88,0.09,,,0.09,meteohub,2013-06-07 19:59:00,
2013-06-07 16:06:00,65.7,62.6,29.43,West,270,1.0,2.0,90,0.11,,,0.11,meteohub,2013-06-07 20:06:00,
2013-06-07 16:12:00,70.5,66.2,29.43,North,0,2.0,2.0,86,0.11,,,0.11,meteohub,2013-06-07 20:12:00,
2013-06-07 16:18:00,73.8,65.3,29.43,NW,315,1.0,2.0,75,0.11,,,0.11,meteohub,2013-06-07 20:18:00,
2013-06-07 16:24:00,74.5,64.4,29.42,NE,45,2.0,2.0,71,0.11,,,0.11,meteohub,2013-06-07 20:24:00,
2013-06-07 16:31:00,78.1,63.5,29.42,SW,225,1.0,2.0,61,0.09,,,0.11,meteohub,2013-06-07 20:31:00,
2013-06-07 16:37:00,78.4,63.9,29.42,SW,225,2.0,2.0,61,0.09,,,0.11,meteohub,2013-06-07 20:37:00,
2013-06-07 16:43:00,81.3,60.3,29.42,South,180,2.0,2.0,49,0.08,,,0.11,meteohub,2013-06-07 20:43:00,
2013-06-07 16:50:00,80.4,60.6,29.42,South,180,2.0,3.0,51,0.05,,,0.11,meteohub,2013-06-07 20:50:00,
2013-06-07 16:56:00,77.5,58.5,29.42,NE,45,1.0,3.0,52,0.01,,,0.11,meteohub,2013-06-07 20:56:00,
2013-06-07 17:02:00,75.9,61.0,29.42,NE,45,2.0,2.0,60,0.00,,,0.11,meteohub,2013-06-07 21:02:00,
2013-06-07 17:07:00,72.9,61.7,29.42,NE,45,2.0,2.0,68,0.00,,,0.11,meteohub,2013-06-07 21:07:00,
2013-06-07 17:13:00,71.2,61.7,29.42,NE,45,2.0,2.0,72,0.00,,,0.11,meteohub,2013-06-07 21:13:00,
2013-06-07 17:20:00,70.5,62.2,29.42,NE,45,0.0,2.0,75,0.00,,,0.11,meteohub,2013-06-07 21:20:00,
2013-06-07 17:26:00,70.0,62.8,29.42,NE,45,2.0,2.0,78,0.00,,,0.11,meteohub,2013-06-07 21:26:00,
2013-06-07 17:32:00,68.9,62.8,29.43,NE,45,0.0,2.0,81,0.00,,,0.11,meteohub,2013-06-07 21:32:00,
2013-06-07 17:37:00,68.0,62.2,29.43,NE,45,0.0,2.0,82,0.00,,,0.11,meteohub,2013-06-07 21:37:00,
2013-06-07 17:43:00,66.9,62.2,29.44,NE,45,0.0,2.0,85,0.00,,,0.11,meteohub,2013-06-07 21:43:00,
2013-06-07 17:49:00,66.2,62.6,29.44,North,0,0.0,0.0,88,0.00,,,0.11,meteohub,2013-06-07 21:49:00,
2013-06-07 17:55:00,65.8,62.8,29.44,North,0,0.0,0.0,90,0.00,,,0.11,meteohub,2013-06-07 21:55:00,
2013-06-07 18:01:00,65.7,63.3,29.45,North,0,1.0,0.0,92,0.00,,,0.11,meteohub,2013-06-07 22:01:00,
2013-06-07 18:07:00,65.7,63.5,29.44,West,270,4.0,4.0,93,0.00,,,0.11,meteohub,2013-06-07 22:07:00,
2013-06-07 18:14:00,65.1,63.3,29.44,North,0,2.0,4.0,94,0.01,,,0.12,meteohub,2013-06-07 22:14:00,
2013-06-07 18:20:00,64.6,62.8,29.44,NE,45,1.0,4.0,94,0.02,,,0.13,meteohub,2013-06-07 22:20:00,
2013-06-07 18:26:00,64.2,62.2,29.44,NE,45,2.0,3.0,93,0.05,,,0.15,meteohub,2013-06-07 22:26:00,
2013-06-07 18:32:00,63.9,62.1,29.45,NE,45,0.0,2.0,94,0.05,,,0.15,meteohub,2013-06-07 22:32:00,
2013-06-07 18:37:00,63.7,61.9,29.45,SW,225,1.0,2.0,94,0.06,,,0.17,meteohub,2013-06-07 22:37:00,
2013-06-07 18:43:00,63.7,61.9,29.46,North,0,2.0,2.0,94,0.08,,,0.19,meteohub,2013-06-07 22:43:00,
2013-06-07 18:50:00,63.1,61.3,29.46,South,180,2.0,2.0,94,0.13,,,0.24,meteohub,2013-06-07 22:50:00,
2013-06-07 18:56:00,62.4,61.0,29.47,North,0,3.0,3.0,95,0.17,,,0.27,meteohub,2013-06-07 22:56:00,
2013-06-07 19:02:00,61.9,60.1,29.47,NW,315,0.0,3.0,94,0.18,,,0.28,meteohub,2013-06-07 23:02:00,
2013-06-07 19:07:00,61.0,59.0,29.47,NE,45,3.0,3.0,93,0.19,,,0.30,meteohub,2013-06-07 23:07:00,
2013-06-07 19:14:00,60.3,58.5,29.47,NE,45,2.0,4.0,94,0.18,,,0.31,meteohub,2013-06-07 23:14:00,
2013-06-07 19:20:00,60.3,58.5,29.47,NE,45,2.0,4.0,94,0.18,,,0.32,meteohub,2013-06-07 23:20:00,
2013-06-07 19:26:00,59.7,58.3,29.47,SE,135,0.0,2.0,95,0.19,,,0.34,meteohub,2013-06-07 23:26:00,
2013-06-07 19:32:00,59.9,58.8,29.47,NW,315,0.0,2.0,96,0.19,,,0.35,meteohub,2013-06-07 23:32:00,
2013-06-07 19:37:00,59.7,58.6,29.48,SSW,203,1.0,2.0,96,0.18,,,0.35,meteohub,2013-06-07 23:37:00,
2013-06-07 19:43:00,59.7,58.6,29.48,NE,45,2.0,2.0,96,0.14,,,0.35,meteohub,2013-06-07 23:43:00,
2013-06-07 19:50:00,59.7,58.8,29.47,NE,45,0.0,2.0,97,0.14,,,0.38,meteohub,2013-06-07 23:50:00,
2013-06-07 19:55:00,59.5,58.6,29.47,NE,45,2.0,2.0,97,0.11,,,0.38,meteohub,2013-06-07 23:55:00,
2013-06-07 20:01:00,59.7,59.2,29.47,SW,225,0.0,2.0,98,0.09,,,0.38,meteohub,2013-06-08 00:01:00,
2013-06-07 20:08:00,59.7,59.2,29.47,NE,45,0.0,2.0,98,0.07,,,0.38,meteohub,2013-06-08 00:08:00,
2013-06-07 20:14:00,59.9,59.4,29.47,SE,135,0.0,2.0,98,0.07,,,0.38,meteohub,2013-06-08 00:14:00,
2013-06-07 20:20:00,59.9,59.4,29.47,SE,135,0.0,1.0,98,0.06,,,0.38,meteohub,2013-06-08 00:20:00,
2013-06-07 20:26:00,59.9,59.4,29.47,SE,135,2.0,2.0,98,0.04,,,0.38,meteohub,2013-06-08 00:26:00,
2013-06-07 20:32:00,59.9,59.4,29.48,SE,135,0.0,2.0,98,0.02,,,0.38,meteohub,2013-06-08 00:32:00,
2013-06-07 20:37:00,59.7,59.2,29.48,North,0,2.0,2.0,98,0.02,,,0.38,meteohub,2013-06-08 00:37:00,
2013-06-07 20:44:00,59.7,59.4,29.48,North,0,0.0,2.0,99,0.02,,,0.38,meteohub,2013-06-08 00:44:00,
2013-06-07 20:50:00,59.7,59.4,29.48,North,0,0.0,2.0,99,0.00,,,0.38,meteohub,2013-06-08 00:50:00,
2013-06-07 20:56:00,59.7,59.4,29.47,NW,315,0.0,1.0,99,0.00,,,0.38,meteohub,2013-06-08 00:56:00,
2013-06-07 21:02:00,59.7,59.4,29.48,South,180,0.0,0.0,99,0.00,,,0.38,meteohub,2013-06-08 01:02:00,
2013-06-07 21:08:00,59.5,59.2,29.48,NW,315,0.0,2.0,99,0.00,,,0.38,meteohub,2013-06-08 01:08:00,
2013-06-07 21:14:00,59.5,59.2,29.49,North,0,0.0,2.0,99,0.00,,,0.38,meteohub,2013-06-08 01:14:00,
2013-06-07 21:21:00,59.5,59.2,29.48,North,0,0.0,1.0,99,0.00,,,0.38,meteohub,2013-06-08 01:21:00,
2013-06-07 21:27:00,59.5,59.2,29.48,South,180,0.0,1.0,99,0.00,,,0.38,meteohub,2013-06-08 01:27:00,
2013-06-07 21:33:00,59.5,59.2,29.48,South,180,0.0,1.0,99,0.00,,,0.38,meteohub,2013-06-08 01:33:00,
2013-06-07 21:39:00,59.5,59.2,29.48,North,0,0.0,1.0,99,0.00,,,0.38,meteohub,2013-06-08 01:39:00,
2013-06-07 21:46:00,59.4,59.0,29.48,SW,225,1.0,2.0,99,0.00,,,0.38,meteohub,2013-06-08 01:46:00,
2013-06-07 21:52:00,59.4,59.0,29.48,North,0,0.0,2.0,99,0.00,,,0.38,meteohub,2013-06-08 01:52:00,
2013-06-07 21:58:00,59.4,59.0,29.49,South,180,1.0,1.0,99,0.00,,,0.38,meteohub,2013-06-08 01:58:00,
2013-06-07 22:04:00,59.4,59.0,29.49,North,0,1.0,1.0,99,0.00,,,0.38,meteohub,2013-06-08 02:04:00,
2013-06-07 22:11:00,59.4,59.0,29.49,North,0,0.0,2.0,99,0.00,,,0.38,meteohub,2013-06-08 02:11:00,
2013-06-07 22:17:00,59.4,59.0,29.50,SW,225,2.0,2.0,99,0.00,,,0.38,meteohub,2013-06-08 02:17:00,
2013-06-07 22:22:00,59.4,59.0,29.50,South,180,0.0,2.0,99,0.00,,,0.38,meteohub,2013-06-08 02:22:00,
2013-06-07 22:28:00,59.4,59.0,29.50,East,90,0.0,2.0,99,0.00,,,0.38,meteohub,2013-06-08 02:28:00,
2013-06-07 22:34:00,59.4,59.0,29.51,South,180,0.0,2.0,99,0.00,,,0.38,meteohub,2013-06-08 02:34:00,
2013-06-07 22:40:00,59.4,59.0,29.51,South,180,0.0,2.0,99,0.00,,,0.38,meteohub,2013-06-08 02:40:00,
2013-06-07 22:46:00,59.2,58.8,29.51,South,180,0.0,2.0,99,0.00,,,0.38,meteohub,2013-06-08 02:46:00,
2013-06-07 22:52:00,59.2,58.8,29.51,South,180,0.0,0.0,99,0.00,,,0.38,meteohub,2013-06-08 02:52:00,
2013-06-07 22:59:00,59.2,58.8,29.52,South,180,0.0,0.0,99,0.00,,,0.38,meteohub,2013-06-08 02:59:00,
2013-06-07 23:05:00,59.4,59.0,29.52,NE,45,0.0,0.0,99,0.00,,,0.38,meteohub,2013-06-08 03:05:00,
2013-06-07 23:11:00,59.4,59.0,29.52,SW,225,0.0,2.0,99,0.00,,,0.38,meteohub,2013-06-08 03:11:00,
2013-06-07 23:17:00,59.4,59.0,29.52,NE,45,0.0,2.0,99,0.00,,,0.38,meteohub,2013-06-08 03:17:00,
2013-06-07 23:22:00,59.4,59.0,29.52,NE,45,0.0,2.0,99,0.00,,,0.38,meteohub,2013-06-08 03:22:00,
2013-06-07 23:28:00,59.2,58.8,29.52,South,180,0.0,0.0,99,0.00,,,0.38,meteohub,2013-06-08 03:28:00,
2013-06-07 23:32:00,59.2,58.8,29.52,NW,315,2.0,0.0,99,0.00,,,0.38,meteohub,2013-06-08 03:32:00,
2013-06-07 23:34:00,59.2,58.8,29.52,NW,315,2.0,0.0,99,0.00,,,0.38,meteohub,2013-06-08 03:34:00,
2013-06-07 23:41:00,59.2,58.8,29.52,SW,225,1.0,2.0,99,0.00,,,0.38,meteohub,2013-06-08 03:41:00,
2013-06-07 23:46:00,59.2,58.8,29.52,East,90,0.0,2.0,99,0.00,,,0.38,meteohub,2013-06-08 03:46:00,
2013-06-07 23:52:00,59.2,58.8,29.52,East,90,0.0,2.0,99,0.00,,,0.38,meteohub,2013-06-08 03:52:00,
2013-06-07 23:58:00,59.0,58.6,29.52,South,180,0.0,1.0,99,0.00,,,0.38,meteohub,2013-06-08 03:58:00,